Time;durP1;ratioP1;P1;durP2;ratioP2;P2;SDS_P1;SDS_P2;PMS_P1;PMS_P2;Temp;Humidity;BMP_temperature;BMP_pressure;BME280_temperature;BME280_humidity;BME280_pressure;Samples;Min_cycle;Max_cycle;Signal;HPM_P1;HPM_P2
2022/10/29 00:01:40;;;;;;;37.85;7.05;;;12.20;99.90;;;;;;4954487;28;20051;-86
2022/10/29 00:04:06;;;;;;;30.02;6.57;;;12.30;99.90;;;;;;4952502;28;20059;-86
2022/10/29 00:06:31;;;;;;;40.55;6.80;;;12.30;99.90;;;;;;4953928;28;20046;-86
2022/10/29 00:08:57;;;;;;;74.95;6.22;;;12.30;99.90;;;;;;4953362;28;20054;-87
2022/10/29 00:11:23;;;;;;;39.20;7.60;;;12.30;99.90;;;;;;4953538;28;20046;-85
2022/10/29 00:13:59;;;;;;;39.67;9.80;;;12.60;99.90;;;;;;4953160;28;20101;-87
2022/10/29 00:16:28;;;;;;;54.03;10.48;;;13.10;99.90;;;;;;4953856;28;20050;-86
2022/10/29 00:18:55;;;;;;;57.97;11.73;;;12.40;99.90;;;;;;4968221;28;20062;-86
2022/10/29 00:21:23;;;;;;;62.05;11.45;;;12.60;99.90;;;;;;4942282;28;20058;-86
2022/10/29 00:23:50;;;;;;;50.72;11.20;;;12.60;99.90;;;;;;4952986;28;20517;-86
2022/10/29 00:26:18;;;;;;;44.40;9.18;;;12.70;99.90;;;;;;4937535;28;20035;-86
2022/10/29 00:28:44;;;;;;;31.80;8.27;;;12.70;99.90;;;;;;4937400;28;20054;-86
2022/10/29 00:31:14;;;;;;;63.63;17.95;;;12.40;99.90;;;;;;4937897;28;20055;-87
2022/10/29 00:33:40;;;;;;;58.83;18.20;;;12.40;99.90;;;;;;4936939;28;20150;-87
2022/10/29 00:36:10;;;;;;;71.65;18.67;;;12.30;99.90;;;;;;4938362;28;20542;-86
2022/10/29 00:38:35;;;;;;;87.28;19.77;;;12.60;99.90;;;;;;4937845;28;20130;-86
2022/10/29 00:41:03;;;;;;;117.88;23.23;;;12.50;99.90;;;;;;4952558;28;20138;-86
2022/10/29 00:43:32;;;;;;;102.75;22.80;;;12.50;99.90;;;;;;4937446;28;20050;-86
2022/10/29 00:46:04;;;;;;;121.88;18.70;;;12.50;99.90;;;;;;4952592;28;20054;-86
2022/10/29 00:48:33;;;;;;;60.80;17.25;;;12.50;99.90;;;;;;4952703;28;20081;-86
2022/10/29 00:51:02;;;;;;;64.70;12.88;;;12.60;99.90;;;;;;4936905;28;20042;-86
2022/10/29 00:53:32;;;;;;;74.95;12.15;;;12.60;99.90;;;;;;4953250;28;20050;-87
2022/10/29 00:55:58;;;;;;;136.02;14.82;;;12.40;99.90;;;;;;4936622;28;20059;-86
2022/10/29 00:58:25;;;;;;;83.55;14.02;;;12.50;99.90;;;;;;4937764;28;20152;-86
2022/10/29 01:00:50;;;;;;;110.18;15.38;;;13.20;99.90;;;;;;4937270;28;20047;-86
2022/10/29 01:03:16;;;;;;;101.68;14.38;;;12.40;99.90;;;;;;4936556;28;20062;-87
2022/10/29 01:05:44;;;;;;;104.75;14.15;;;12.90;99.90;;;;;;4936979;28;20260;-87
2022/10/29 01:08:10;;;;;;;193.95;19.30;;;12.70;99.90;;;;;;4936997;28;20058;-87
2022/10/29 01:10:48;;;;;;;132.70;15.15;;;12.60;99.90;;;;;;4937145;28;20050;-87
2022/10/29 01:13:19;;;;;;;169.60;15.95;;;12.70;99.90;;;;;;4937569;28;20058;-87
2022/10/29 01:15:52;;;;;;;199.98;18.45;;;12.60;99.90;;;;;;4956741;28;20042;-86
2022/10/29 01:18:38;;;;;;;233.45;19.65;;;12.60;99.90;;;;;;4956801;28;20055;-88
2022/10/29 01:21:27;;;;;;;183.70;18.15;;;12.70;99.90;;;;;;4956997;28;20130;-86
2022/10/29 01:24:03;;;;;;;149.40;19.02;;;12.70;99.90;;;;;;4940300;28;20129;-86
2022/10/29 01:26:46;;;;;;;145.73;19.80;;;12.50;99.90;;;;;;4972889;28;20475;-86
2022/10/29 01:29:28;;;;;;;160.32;21.02;;;12.60;99.90;;;;;;4940183;28;20050;-86
2022/10/29 01:31:59;;;;;;;218.55;23.80;;;12.60;99.90;;;;;;4940416;28;20113;-85
2022/10/29 01:34:39;;;;;;;159.30;21.95;;;12.80;99.90;;;;;;4940594;28;20439;-86
2022/10/29 01:37:18;;;;;;;209.93;25.27;;;12.60;99.90;;;;;;4940583;28;20099;-86
2022/10/29 01:39:50;;;;;;;117.40;20.60;;;12.70;99.90;;;;;;4956800;28;20501;-86
2022/10/29 01:42:30;;;;;;;162.63;24.13;;;12.90;99.90;;;;;;4940832;28;20126;-85
2022/10/29 01:45:08;;;;;;;187.93;24.90;;;12.80;99.90;;;;;;4939928;28;20101;-86
2022/10/29 01:47:42;;;;;;;143.40;23.70;;;12.80;99.90;;;;;;4939658;28;20043;-87
2022/10/29 01:50:11;;;;;;;153.25;23.77;;;12.90;99.90;;;;;;4956717;28;20097;-87
2022/10/29 01:52:38;;;;;;;186.48;24.60;;;12.80;99.90;;;;;;4940110;28;20045;-86
2022/10/29 01:55:05;;;;;;;168.15;23.85;;;12.90;99.90;;;;;;4940815;28;20046;-87
2022/10/29 01:57:35;;;;;;;123.45;21.30;;;12.90;99.90;;;;;;4971531;28;20439;-87
2022/10/29 02:00:10;;;;;;;125.65;21.27;;;12.90;99.90;;;;;;4955973;28;20049;-86
2022/10/29 02:02:52;;;;;;;118.10;19.65;;;12.90;99.90;;;;;;4940096;28;20088;-87
2022/10/29 02:05:34;;;;;;;158.55;23.35;;;12.90;99.90;;;;;;4940263;28;20055;-86
2022/10/29 02:08:08;;;;;;;102.30;19.35;;;12.90;99.90;;;;;;4955672;28;20054;-86
2022/10/29 02:10:42;;;;;;;;;;;12.80;99.90;;;;;;4956529;28;20039;-86
2022/10/29 02:13:12;;;;;;;144.27;17.05;;;12.80;99.90;;;;;;4940279;28;19926;-86
2022/10/29 02:15:42;;;;;;;130.93;17.85;;;12.90;99.90;;;;;;4955966;28;20053;-86
2022/10/29 02:18:08;;;;;;;191.32;17.55;;;12.90;99.90;;;;;;4939377;28;20383;-86
2022/10/29 02:20:35;;;;;;;261.85;20.27;;;12.80;99.90;;;;;;4939520;28;20054;-87
2022/10/29 02:23:01;;;;;;;150.85;16.10;;;12.80;99.90;;;;;;4939513;28;20086;-86
2022/10/29 02:25:27;;;;;;;205.23;16.52;;;13.00;99.90;;;;;;4954759;28;20082;-86
2022/10/29 02:27:53;;;;;;;153.55;16.20;;;12.90;99.90;;;;;;4955821;28;20163;-87
2022/10/29 02:30:19;;;;;;;127.25;12.63;;;12.80;99.90;;;;;;4956214;28;20060;-86
2022/10/29 02:32:45;;;;;;;97.20;13.32;;;12.80;99.90;;;;;;4954320;28;20057;-86
2022/10/29 02:35:10;;;;;;;88.75;11.32;;;12.80;99.90;;;;;;4956207;28;20066;-86
2022/10/29 02:37:36;;;;;;;115.65;12.57;;;12.90;99.90;;;;;;4971590;28;20051;-86
2022/10/29 02:40:03;;;;;;;108.43;12.70;;;12.90;99.90;;;;;;4971015;28;20046;-86
2022/10/29 02:42:29;;;;;;;104.72;12.20;;;12.90;99.90;;;;;;4971710;28;20133;-86
2022/10/29 02:44:54;;;;;;;91.35;11.77;;;12.90;99.90;;;;;;4971531;28;20142;-87
2022/10/29 02:47:20;;;;;;;129.30;13.50;;;12.60;99.90;;;;;;4970761;28;20431;-85
2022/10/29 02:49:45;;;;;;;111.25;13.00;;;12.60;99.90;;;;;;4971179;28;20045;-87
2022/10/29 02:52:11;;;;;;;164.77;13.40;;;12.70;99.90;;;;;;4955459;28;20045;-86
2022/10/29 02:54:38;;;;;;;83.75;11.18;;;12.60;99.90;;;;;;4971044;28;20049;-86
2022/10/29 02:57:04;;;;;;;131.25;11.40;;;12.50;99.90;;;;;;4972062;28;20478;-86
2022/10/29 02:59:29;;;;;;;115.55;11.93;;;12.90;99.90;;;;;;4971864;28;20414;-86
2022/10/29 03:01:55;;;;;;;122.68;10.90;;;12.50;99.90;;;;;;4970388;28;20055;-86
2022/10/29 03:04:21;;;;;;;117.10;11.02;;;12.70;99.90;;;;;;4954557;28;20057;-87
2022/10/29 03:06:46;;;;;;;101.25;10.73;;;12.50;99.90;;;;;;4971101;28;20050;-85
2022/10/29 03:09:12;;;;;;;99.45;10.77;;;12.60;99.90;;;;;;4970285;28;20046;-86
2022/10/29 03:11:38;;;;;;;64.28;8.50;;;12.60;99.90;;;;;;4971564;28;20062;-86
2022/10/29 03:14:03;;;;;;;43.92;8.63;;;12.50;99.90;;;;;;4937992;28;20129;-87
2022/10/29 03:16:29;;;;;;;90.57;9.60;;;12.70;99.90;;;;;;4954467;28;20403;-87
2022/10/29 03:18:55;;;;;;;167.82;11.70;;;12.50;99.90;;;;;;4950296;29;20055;-86
2022/10/29 03:21:20;;;;;;;155.38;11.75;;;12.50;99.90;;;;;;4935263;29;20043;-87
2022/10/29 03:23:46;;;;;;;94.28;9.98;;;12.80;99.90;;;;;;4951126;29;20043;-86
2022/10/29 03:26:12;;;;;;;156.80;12.65;;;12.50;99.90;;;;;;4950940;29;20237;-86
2022/10/29 03:28:37;;;;;;;164.43;11.80;;;12.40;99.90;;;;;;4951332;29;20074;-86
2022/10/29 03:31:03;;;;;;;97.85;11.18;;;12.30;99.90;;;;;;4951277;29;20043;-86
2022/10/29 03:33:29;;;;;;;99.53;11.73;;;12.50;99.90;;;;;;4950261;29;20065;-86
2022/10/29 03:35:56;;;;;;;113.93;10.43;;;12.50;99.90;;;;;;4950545;29;20138;-86
2022/10/29 03:38:22;;;;;;;71.40;8.73;;;12.40;99.90;;;;;;4950607;28;20055;-86
2022/10/29 03:40:48;;;;;;;91.38;9.48;;;12.40;99.90;;;;;;4951369;29;20045;-86
2022/10/29 03:43:13;;;;;;;127.05;12.07;;;12.40;99.90;;;;;;4951468;29;20039;-86
2022/10/29 03:45:39;;;;;;;123.70;10.15;;;12.40;99.90;;;;;;4950920;29;20043;-87
2022/10/29 03:48:05;;;;;;;98.20;10.52;;;12.20;99.90;;;;;;4950924;29;20043;-86
2022/10/29 03:50:31;;;;;;;74.15;9.43;;;12.20;99.90;;;;;;4951611;29;20061;-87
2022/10/29 03:52:56;;;;;;;77.68;9.30;;;12.20;99.90;;;;;;4950898;29;20451;-86
2022/10/29 03:55:22;;;;;;;103.07;10.90;;;12.30;99.90;;;;;;4951333;29;20035;-87
2022/10/29 03:57:47;;;;;;;45.35;9.80;;;12.20;99.90;;;;;;4950209;29;20050;-86
2022/10/29 04:00:14;;;;;;;80.78;9.88;;;12.30;99.90;;;;;;4935594;29;20126;-85
2022/10/29 04:02:39;;;;;;;88.07;9.75;;;12.30;99.90;;;;;;4930474;29;20097;-86
2022/10/29 04:05:05;;;;;;;80.95;11.80;;;12.20;99.90;;;;;;4931174;29;20420;-85
2022/10/29 04:07:31;;;;;;;61.92;8.93;;;12.20;99.90;;;;;;4915570;29;20094;-86
2022/10/29 04:09:57;;;;;;;79.93;10.68;;;12.20;99.90;;;;;;4915178;29;20047;-86
2022/10/29 04:12:22;;;;;;;102.60;11.13;;;12.20;99.90;;;;;;4915132;29;20058;-86
2022/10/29 04:14:48;;;;;;;92.93;11.30;;;12.20;99.90;;;;;;4931335;29;20200;-87
2022/10/29 04:17:14;;;;;;;105.80;12.18;;;12.40;99.90;;;;;;4918511;29;20063;-85
2022/10/29 04:19:39;;;;;;;114.38;11.32;;;12.60;99.90;;;;;;4933311;29;20472;-86
2022/10/29 04:22:05;;;;;;;96.47;10.23;;;12.40;99.90;;;;;;4934359;29;20051;-86
2022/10/29 04:24:31;;;;;;;114.95;10.57;;;12.50;99.90;;;;;;4934532;29;20082;-86
2022/10/29 04:26:57;;;;;;;72.43;10.18;;;12.60;99.90;;;;;;4934265;29;20089;-86
2022/10/29 04:29:23;;;;;;;87.40;10.05;;;12.40;99.90;;;;;;4937135;28;20039;-87
2022/10/29 04:31:49;;;;;;;75.68;10.07;;;12.50;99.90;;;;;;4937474;28;20054;-86
2022/10/29 04:34:14;;;;;;;82.50;11.18;;;12.20;99.90;;;;;;4937006;28;20117;-86
2022/10/29 04:36:40;;;;;;;91.18;11.63;;;12.30;99.90;;;;;;4953813;28;20515;-86
2022/10/29 04:39:06;;;;;;;93.43;12.05;;;12.30;99.90;;;;;;4937401;28;20046;-86
2022/10/29 04:41:33;;;;;;;41.75;9.02;;;12.60;99.90;;;;;;4938235;28;20054;-86
2022/10/29 04:44:00;;;;;;;137.65;13.32;;;12.30;99.90;;;;;;4953040;28;20047;-86
2022/10/29 04:46:26;;;;;;;85.32;11.07;;;12.40;99.90;;;;;;4937700;28;20050;-86
2022/10/29 04:48:52;;;;;;;72.53;12.82;;;12.20;99.90;;;;;;4952754;28;20080;-87
2022/10/29 04:51:20;;;;;;;135.60;12.85;;;12.20;99.90;;;;;;4937738;28;20121;-87
2022/10/29 04:53:46;;;;;;;110.93;13.18;;;12.20;99.90;;;;;;4936828;28;20054;-87
2022/10/29 04:56:12;;;;;;;91.85;15.13;;;12.40;99.90;;;;;;4937617;28;20062;-86
2022/10/29 04:58:38;;;;;;;122.57;13.02;;;12.20;99.90;;;;;;4937394;28;20492;-86
2022/10/29 05:01:07;;;;;;;79.93;12.98;;;12.30;99.90;;;;;;4937234;28;20046;-86
2022/10/29 05:03:33;;;;;;;72.32;12.75;;;12.40;99.90;;;;;;4937021;28;20047;-86
2022/10/29 05:06:03;;;;;;;77.95;12.95;;;12.40;99.90;;;;;;4937805;28;20057;-85
2022/10/29 05:08:29;;;;;;;75.20;13.38;;;12.30;99.90;;;;;;4936844;28;20043;-86
2022/10/29 05:10:54;;;;;;;87.60;13.10;;;12.30;99.90;;;;;;4938309;29;20414;-86
2022/10/29 05:13:20;;;;;;;82.55;13.82;;;12.30;99.90;;;;;;4933724;29;20043;-86
2022/10/29 05:15:50;;;;;;;75.18;13.40;;;12.50;99.90;;;;;;4917563;29;20047;-86
2022/10/29 05:18:15;;;;;;;72.47;12.90;;;12.30;99.90;;;;;;4933336;29;20153;-86
2022/10/29 05:20:41;;;;;;;69.07;12.77;;;12.50;99.90;;;;;;4934414;29;20451;-86
2022/10/29 05:23:11;;;;;;;87.55;13.35;;;12.30;99.90;;;;;;4917731;29;20047;-86
2022/10/29 05:25:40;;;;;;;83.95;13.57;;;12.40;99.90;;;;;;4917973;29;20044;-86
2022/10/29 05:28:11;;;;;;;60.50;13.05;;;12.50;99.90;;;;;;4917762;29;20063;-86
2022/10/29 05:30:37;;;;;;;67.68;13.43;;;12.30;99.90;;;;;;4917626;29;20460;-85
2022/10/29 05:33:08;;;;;;;59.75;11.13;;;12.50;99.90;;;;;;4931657;28;20051;-86
2022/10/29 05:35:34;;;;;;;112.55;16.58;;;12.40;99.90;;;;;;4937297;28;20401;-86
2022/10/29 05:38:00;;;;;;;72.63;13.45;;;12.30;99.90;;;;;;4952865;28;20110;-86
2022/10/29 05:40:26;;;;;;;74.10;14.82;;;12.50;99.90;;;;;;4936815;28;20039;-86
2022/10/29 05:42:52;;;;;;;80.47;13.43;;;12.30;99.90;;;;;;4952490;28;20146;-86
2022/10/29 05:45:18;;;;;;;49.53;11.43;;;12.60;99.90;;;;;;4936301;28;20074;-86
2022/10/29 05:47:44;;;;;;;84.53;14.10;;;12.50;99.90;;;;;;4953258;28;20161;-86
2022/10/29 05:50:11;;;;;;;54.58;12.57;;;12.50;99.90;;;;;;4968670;28;20046;-86
2022/10/29 05:52:37;;;;;;;83.55;14.70;;;12.40;99.90;;;;;;4968768;28;20499;-86
2022/10/29 05:55:04;;;;;;;63.50;12.20;;;12.30;99.90;;;;;;4968613;28;20126;-86
2022/10/29 05:57:30;;;;;;;49.28;12.35;;;12.50;99.90;;;;;;4968253;28;20464;-86
2022/10/29 05:59:55;;;;;;;63.22;12.48;;;12.50;99.90;;;;;;4955434;28;20066;-85
2022/10/29 06:02:30;;;;;;;57.28;12.90;;;12.40;99.90;;;;;;4920004;29;20114;-87
2022/10/29 06:04:56;;;;;;;74.85;13.43;;;12.40;99.90;;;;;;4935809;28;20407;-86
2022/10/29 06:07:21;;;;;;;75.65;12.93;;;12.30;99.90;;;;;;4940143;28;20050;-86
2022/10/29 06:09:47;;;;;;;76.30;13.88;;;12.30;99.90;;;;;;4939716;28;20042;-86
2022/10/29 06:12:13;;;;;;;59.53;12.43;;;12.30;99.90;;;;;;4954340;28;20061;-86
2022/10/29 06:14:50;;;;;;;70.20;11.98;;;12.40;99.90;;;;;;4947462;28;20038;-87
2022/10/29 06:17:16;;;;;;;75.40;14.63;;;12.50;99.90;;;;;;4958468;28;20495;-86
2022/10/29 06:19:45;;;;;;;69.97;13.45;;;12.40;99.90;;;;;;4941385;28;20045;-85
2022/10/29 06:22:11;;;;;;;65.13;14.55;;;12.50;99.90;;;;;;4959031;28;20038;-86
2022/10/29 06:24:46;;;;;;;47.00;13.13;;;12.50;99.90;;;;;;4973520;28;20101;-85
2022/10/29 06:27:11;;;;;;;33.90;12.18;;;12.60;99.90;;;;;;4981044;28;20045;-86
2022/10/29 06:29:43;;;;;;;51.38;13.63;;;12.40;99.90;;;;;;4975090;28;20058;-87
2022/10/29 06:32:09;;;;;;;55.40;12.38;;;12.50;99.90;;;;;;4974102;28;20057;-85
2022/10/29 06:34:34;;;;;;;67.47;12.85;;;12.50;99.90;;;;;;4974116;28;20060;-86
2022/10/29 06:37:00;;;;;;;80.40;14.00;;;12.40;99.90;;;;;;4974636;28;20523;-86
2022/10/29 06:39:26;;;;;;;43.55;12.15;;;12.60;99.90;;;;;;4974190;28;20359;-86
2022/10/29 06:41:51;;;;;;;81.60;14.23;;;12.50;99.90;;;;;;4972091;28;20042;-87
2022/10/29 06:44:17;;;;;;;56.00;12.85;;;12.60;99.90;;;;;;4966724;28;20457;-85
2022/10/29 06:46:43;;;;;;;72.18;14.75;;;12.70;99.90;;;;;;4973066;28;20049;-84
2022/10/29 06:49:08;;;;;;;77.32;15.02;;;12.50;99.90;;;;;;4973733;28;20490;-86
2022/10/29 06:51:34;;;;;;;74.65;14.70;;;12.70;99.90;;;;;;4974309;28;20132;-86
2022/10/29 06:54:00;;;;;;;54.53;14.13;;;12.70;99.90;;;;;;4973319;28;20042;-86
2022/10/29 06:56:26;;;;;;;63.97;12.63;;;12.70;99.90;;;;;;4974471;28;20050;-87
2022/10/29 06:58:52;;;;;;;41.22;12.30;;;12.50;99.90;;;;;;4958456;28;20462;-86
2022/10/29 07:01:18;;;;;;;52.33;12.15;;;12.70;99.90;;;;;;4974123;28;20161;-86
2022/10/29 07:03:43;;;;;;;36.80;8.63;;;12.60;99.90;;;;;;4973059;28;20069;-85
2022/10/29 07:06:09;;;;;;;40.08;9.45;;;12.80;99.90;;;;;;4954164;28;20039;-86
2022/10/29 07:08:35;;;;;;;64.43;11.52;;;12.80;99.90;;;;;;4951105;29;20047;-86
2022/10/29 07:11:10;;;;;;;51.55;13.02;;;12.80;99.90;;;;;;4951845;29;20039;-86
2022/10/29 07:13:36;;;;;;;46.30;12.23;;;12.70;99.90;;;;;;4966805;28;20467;-87
2022/10/29 07:16:01;;;;;;;68.30;14.07;;;12.80;99.90;;;;;;4956641;28;20138;-86
2022/10/29 07:18:27;;;;;;;53.83;10.90;;;12.90;99.90;;;;;;4956716;28;20137;-86
2022/10/29 07:21:02;;;;;;;50.33;11.48;;;13.00;99.90;;;;;;4941681;28;20491;-86
2022/10/29 07:23:28;;;;;;;53.45;11.05;;;13.00;99.90;;;;;;4955409;28;20050;-86
2022/10/29 07:25:54;;;;;;;46.35;10.68;;;13.00;99.90;;;;;;4946098;28;20046;-87
2022/10/29 07:28:21;;;;;;;62.45;11.98;;;12.90;99.90;;;;;;4958842;28;20475;-86
2022/10/29 07:30:49;;;;;;;52.28;10.75;;;13.10;99.90;;;;;;4948048;28;20058;-87
2022/10/29 07:33:16;;;;;;;66.90;12.18;;;13.00;99.90;;;;;;4958564;28;20047;-86
2022/10/29 07:35:42;;;;;;;77.10;12.45;;;13.00;99.90;;;;;;4957504;28;20678;-86
2022/10/29 07:38:09;;;;;;;84.85;12.98;;;13.00;99.90;;;;;;4936010;29;20106;-86
2022/10/29 07:40:36;;;;;;;49.72;11.70;;;13.20;99.90;;;;;;4935057;29;20554;-87
2022/10/29 07:43:02;;;;;;;57.40;12.88;;;13.10;99.90;;;;;;4934743;29;20063;-86
2022/10/29 07:45:27;;;;;;;64.85;12.48;;;13.20;99.90;;;;;;4935309;29;20118;-86
2022/10/29 07:48:01;;;;;;;67.53;12.38;;;13.10;99.90;;;;;;4933861;29;20118;-86
2022/10/29 07:50:28;;;;;;;74.05;13.93;;;13.20;99.90;;;;;;4934704;29;20047;-87
2022/10/29 07:52:54;;;;;;;75.90;12.90;;;13.30;99.90;;;;;;4937578;29;20062;-87
2022/10/29 07:55:20;;;;;;;66.53;13.48;;;13.40;99.90;;;;;;4934428;29;20050;-86
2022/10/29 07:57:46;;;;;;;89.70;13.77;;;13.30;99.90;;;;;;4915162;29;20048;-86
2022/10/29 08:00:20;;;;;;;85.05;13.55;;;13.40;99.90;;;;;;4920906;29;20043;-87
2022/10/29 08:02:52;;;;;;;77.97;13.30;;;13.50;99.90;;;;;;4931979;29;20420;-86
2022/10/29 08:05:17;;;;;;;65.70;12.43;;;13.50;99.90;;;;;;4915645;29;20047;-86
2022/10/29 08:07:43;;;;;;;71.53;12.70;;;13.60;99.90;;;;;;4916200;29;20139;-87
2022/10/29 08:10:09;;;;;;;67.93;11.60;;;13.70;99.90;;;;;;4915913;29;20122;-87
2022/10/29 08:12:34;;;;;;;89.80;13.55;;;13.60;99.90;;;;;;4915203;29;20588;-86
2022/10/29 08:15:00;;;;;;;48.15;11.20;;;13.60;99.90;;;;;;4915854;29;20043;-86
2022/10/29 08:17:28;;;;;;;103.28;14.05;;;13.80;99.90;;;;;;4914790;29;20052;-86
2022/10/29 08:19:54;;;;;;;85.43;13.82;;;13.80;99.90;;;;;;4931886;29;20058;-87
2022/10/29 08:22:35;;;;;;;111.15;14.85;;;13.90;99.90;;;;;;4915821;29;20035;-91
2022/10/29 08:25:11;;;;;;;82.22;13.70;;;13.90;99.90;;;;;;4914711;29;20130;-86
2022/10/29 08:27:37;;;;;;;59.35;13.35;;;13.70;99.90;;;;;;4915093;29;20134;-86
2022/10/29 08:30:05;;;;;;;54.90;13.70;;;13.90;99.90;;;;;;4930442;29;20470;-85
2022/10/29 08:32:31;;;;;;;67.35;14.93;;;13.80;99.90;;;;;;4929642;29;20059;-86
2022/10/29 08:34:57;;;;;;;65.68;16.75;;;13.80;99.90;;;;;;4915062;29;20039;-86
2022/10/29 08:37:22;;;;;;;61.17;18.15;;;14.20;99.90;;;;;;4945791;29;20099;-86
2022/10/29 08:39:48;;;;;;;69.15;18.60;;;14.00;99.90;;;;;;4929876;29;20135;-85
2022/10/29 08:42:39;;;;;;;72.45;19.77;;;13.90;99.90;;;;;;4946128;29;20087;-86
2022/10/29 08:45:22;;;;;;;71.28;19.63;;;14.00;99.90;;;;;;4949651;28;20070;-85
2022/10/29 08:47:57;;;;;;;83.22;23.60;;;14.00;99.90;;;;;;4950458;28;20047;-85
2022/10/29 08:50:29;;;;;;;80.60;23.02;;;14.30;99.90;;;;;;4933690;29;20483;-85
2022/10/29 08:52:55;;;;;;;84.25;25.42;;;14.20;99.90;;;;;;4937814;28;20534;-85
2022/10/29 08:55:35;;;;;;;69.25;23.40;;;14.40;99.90;;;;;;4958462;28;20043;-86
2022/10/29 08:58:18;;;;;;;72.47;22.55;;;14.40;99.90;;;;;;4960598;28;20558;-85
2022/10/29 09:00:44;;;;;;;64.85;22.45;;;14.30;99.90;;;;;;4957713;28;20038;-85
2022/10/29 09:03:11;;;;;;;73.13;23.83;;;14.50;99.90;;;;;;4943281;28;20046;-85
2022/10/29 09:05:52;;;;;;;64.60;25.05;;;14.60;99.90;;;;;;4940935;28;20450;-86
2022/10/29 09:08:37;;;;;;;69.65;24.05;;;14.50;99.90;;;;;;4934958;29;20051;-86
2022/10/29 09:11:26;;;;;;;65.47;24.33;;;14.50;99.90;;;;;;4952189;29;20097;-86
2022/10/29 09:14:07;;;;;;;66.75;24.58;;;14.70;99.90;;;;;;4949065;29;20138;-87
2022/10/29 09:16:51;;;;;;;69.15;23.88;;;14.70;99.90;;;;;;4934376;29;20039;-87
2022/10/29 09:19:28;;;;;;;74.22;24.92;;;14.70;99.90;;;;;;4948949;29;20499;-86
2022/10/29 09:21:55;;;;;;;63.60;23.00;;;14.60;99.90;;;;;;4933188;29;20464;-87
2022/10/29 09:24:34;;;;;;;76.05;26.48;;;14.70;99.90;;;;;;4934250;29;20411;-86
2022/10/29 09:27:08;;;;;;;66.88;25.13;;;14.70;99.90;;;;;;4934300;29;20079;-87
2022/10/29 09:29:59;;;;;;;82.90;27.52;;;14.60;99.90;;;;;;4933592;29;20053;-87
2022/10/29 09:32:40;;;;;;;73.18;25.33;;;14.60;99.90;;;;;;4933363;29;20039;-86
2022/10/29 09:35:16;;;;;;;74.18;26.45;;;14.60;99.90;;;;;;4950542;28;20499;-86
2022/10/29 09:37:52;;;;;;;61.17;24.48;;;14.70;99.90;;;;;;4952502;29;20062;-86
2022/10/29 09:40:34;;;;;;;61.83;24.90;;;14.90;99.90;;;;;;4937968;29;20047;-87
2022/10/29 09:43:05;;;;;;;64.82;25.10;;;14.90;99.90;;;;;;4952326;29;20146;-87
2022/10/29 09:45:42;;;;;;;60.95;24.75;;;14.90;99.90;;;;;;4953670;29;20405;-86
2022/10/29 09:48:19;;;;;;;57.58;24.63;;;14.80;99.90;;;;;;4953088;29;20186;-87
2022/10/29 09:50:52;;;;;;;59.42;24.23;;;14.90;99.90;;;;;;4952167;29;20102;-86
2022/10/29 09:53:18;;;;;;;58.58;22.75;;;14.90;99.90;;;;;;4953467;29;20047;-87
2022/10/29 09:55:52;;;;;;;58.10;24.10;;;15.20;99.90;;;;;;4952803;29;20039;-86
2022/10/29 09:58:25;;;;;;;51.25;22.48;;;15.10;99.90;;;;;;4953376;29;20047;-87
2022/10/29 10:00:52;;;;;;;60.92;23.38;;;15.10;99.90;;;;;;4953652;29;20050;-86
2022/10/29 10:03:25;;;;;;;58.88;23.10;;;15.10;99.90;;;;;;4952558;29;20102;-86
2022/10/29 10:05:58;;;;;;;58.50;23.20;;;15.10;99.90;;;;;;4952928;29;20484;-87
2022/10/29 10:08:23;;;;;;;53.75;23.33;;;15.00;99.90;;;;;;4937790;29;20054;-87
2022/10/29 10:10:55;;;;;;;59.38;23.25;;;15.10;99.90;;;;;;4952602;29;20403;-87
2022/10/29 10:13:23;;;;;;;56.92;24.25;;;15.10;99.90;;;;;;4938050;29;20058;-87
2022/10/29 10:15:57;;;;;;;53.25;23.00;;;15.30;99.90;;;;;;4952954;29;20047;-87
2022/10/29 10:18:26;;;;;;;50.03;21.83;;;15.20;99.90;;;;;;4952236;29;20493;-87
2022/10/29 10:21:05;;;;;;;61.45;22.98;;;15.40;99.90;;;;;;4920743;29;20512;-87
2022/10/29 10:23:45;;;;;;;48.00;21.70;;;15.50;99.90;;;;;;4920544;29;20043;-87
2022/10/29 10:26:35;;;;;;;46.28;20.67;;;15.50;99.90;;;;;;4921150;29;20491;-86
2022/10/29 10:29:16;;;;;;;43.85;19.40;;;15.40;99.90;;;;;;4920820;29;20047;-87
2022/10/29 10:31:44;;;;;;;44.28;19.55;;;15.50;99.90;;;;;;4920618;29;20134;-87
2022/10/29 10:34:17;;;;;;;49.05;19.02;;;15.50;99.90;;;;;;4920797;29;20127;-87
2022/10/29 10:36:45;;;;;;;;;;;15.70;99.90;;;;;;4921430;29;20074;-86
2022/10/29 10:39:26;;;;;;;41.40;18.85;;;15.90;99.90;;;;;;4920602;29;19923;-87
2022/10/29 10:41:53;;;;;;;39.42;17.85;;;15.90;99.90;;;;;;4937038;29;20071;-86
2022/10/29 10:44:21;;;;;;;40.28;17.25;;;15.90;99.90;;;;;;4936292;29;20051;-87
2022/10/29 10:46:50;;;;;;;36.60;15.73;;;16.10;99.90;;;;;;4935309;29;20083;-87
2022/10/29 10:49:26;;;;;;;43.05;16.90;;;16.00;99.90;;;;;;4919927;29;20079;-86
2022/10/29 10:51:56;;;;;;;44.67;16.30;;;16.10;99.90;;;;;;4936856;29;20086;-87
2022/10/29 10:54:29;;;;;;;37.75;16.05;;;16.30;99.90;;;;;;4920094;29;20081;-87
2022/10/29 10:57:03;;;;;;;35.35;15.20;;;16.30;99.90;;;;;;4920177;29;20058;-87
2022/10/29 10:59:53;;;;;;;30.50;14.02;;;16.40;99.90;;;;;;4936052;29;20043;-87
2022/10/29 11:02:45;;;;;;;36.40;16.13;;;16.40;99.90;;;;;;4919693;29;20161;-87
2022/10/29 11:05:17;;;;;;;32.05;14.27;;;16.50;99.90;;;;;;4943290;28;20046;-86
2022/10/29 11:07:53;;;;;;;41.50;15.27;;;16.60;99.90;;;;;;4934255;29;20047;-86
2022/10/29 11:10:24;;;;;;;38.15;15.05;;;16.60;99.90;;;;;;4920424;29;20134;-87
2022/10/29 11:12:53;;;;;;;26.75;13.95;;;16.70;99.90;;;;;;4919604;29;20054;-86
2022/10/29 11:15:36;;;;;;;28.05;15.18;;;16.60;99.90;;;;;;4935664;29;20554;-88
2022/10/29 11:18:15;;;;;;;36.10;14.35;;;16.80;99.90;;;;;;4938198;29;20134;-87
2022/10/29 11:20:48;;;;;;;31.35;14.20;;;16.70;99.90;;;;;;4935398;29;20063;-87
2022/10/29 11:23:30;;;;;;;33.05;14.35;;;16.70;99.90;;;;;;4935690;29;20046;-87
2022/10/29 11:26:07;;;;;;;37.00;14.57;;;16.90;99.90;;;;;;4932235;29;20162;-87
2022/10/29 11:28:37;;;;;;;33.47;13.73;;;16.90;99.90;;;;;;4916436;29;20048;-87
2022/10/29 11:31:23;;;;;;;27.75;13.45;;;16.90;99.90;;;;;;4916643;29;20036;-87
2022/10/29 11:33:56;;;;;;;35.53;12.95;;;16.90;99.90;;;;;;4915515;29;20670;-86
2022/10/29 11:36:23;;;;;;;29.60;12.25;;;17.00;99.90;;;;;;4939034;28;20039;-87
2022/10/29 11:38:58;;;;;;;28.95;12.18;;;16.90;99.90;;;;;;4957798;28;20050;-87
2022/10/29 11:41:33;;;;;;;33.58;11.55;;;17.10;99.90;;;;;;4950245;28;20175;-88
2022/10/29 11:43:59;;;;;;;28.70;10.85;;;17.10;99.90;;;;;;4931929;29;20157;-87
2022/10/29 11:46:37;;;;;;;27.13;10.25;;;17.20;99.90;;;;;;4916681;29;20119;-88
2022/10/29 11:49:14;;;;;;;20.50;10.52;;;17.30;99.90;;;;;;4931434;29;20047;-87
2022/10/29 11:51:51;;;;;;;26.02;11.52;;;17.30;99.90;;;;;;4917015;29;20110;-89
2022/10/29 11:54:36;;;;;;;28.25;9.52;;;17.50;99.90;;;;;;4916733;29;20134;-87
2022/10/29 11:57:18;;;;;;;24.13;9.38;;;17.50;99.90;;;;;;4916685;29;20047;-88
2022/10/29 12:00:16;;;;;;;30.23;9.80;;;17.40;99.90;;;;;;4916186;29;20580;-87
2022/10/29 12:02:49;;;;;;;30.65;9.50;;;17.50;99.90;;;;;;4915974;29;20420;-88
2022/10/29 12:05:34;;;;;;;31.40;9.40;;;17.50;99.90;;;;;;4917129;29;20054;-87
2022/10/29 12:08:19;;;;;;;44.95;10.40;;;17.60;99.90;;;;;;4916589;29;20119;-87
2022/10/29 12:10:56;;;;;;;35.83;10.15;;;17.60;99.90;;;;;;4916438;29;20051;-87
2022/10/29 12:13:44;;;;;;;26.83;9.98;;;17.60;99.90;;;;;;4916312;29;20469;-86
2022/10/29 12:16:27;;;;;;;27.33;10.52;;;17.70;99.90;;;;;;4916021;29;20496;-87
2022/10/29 12:18:58;;;;;;;;;;;17.70;99.90;;;;;;4905737;29;20060;-87
2022/10/29 12:21:38;;;;;;;24.25;9.88;;;17.70;99.90;;;;;;4916166;29;19927;-88
2022/10/29 12:24:16;;;;;;;30.88;9.55;;;17.60;99.90;;;;;;4917143;29;20075;-88
2022/10/29 12:26:45;;;;;;;26.35;9.98;;;17.70;99.90;;;;;;4910049;28;20473;-86
2022/10/29 12:29:25;;;;;;;28.48;9.60;;;17.70;99.90;;;;;;4937543;28;20043;-87
2022/10/29 12:32:24;;;;;;;29.13;9.20;;;17.80;99.90;;;;;;4937051;28;20038;-87
2022/10/29 12:35:11;;;;;;;22.55;8.02;;;17.90;99.90;;;;;;4954294;28;20043;-87
2022/10/29 12:38:02;;;;;;;23.30;8.20;;;18.10;99.90;;;;;;4954074;28;20189;-87
2022/10/29 12:40:32;;;;;;;1936.57;115.60;;;18.10;99.90;;;;;;4953847;28;20423;-87
2022/10/29 12:43:04;;;;;;;45.55;9.65;;;18.20;99.90;;;;;;4938032;28;20495;-86